createdAt,value
2024-01-21T00:01:16.107Z,22.50
2024-01-21T00:03:56.424Z,25.17
2024-01-21T00:06:28.753Z,23.20
2024-01-21T00:09:07.494Z,22.90
2024-01-21T00:11:39.753Z,21.93
2024-01-21T00:14:18.663Z,22.17
2024-01-21T00:16:50.919Z,23.30
2024-01-21T00:19:29.640Z,23.67
2024-01-21T00:22:01.906Z,22.63
2024-01-21T00:24:40.649Z,20.93
2024-01-21T00:27:13.089Z,24.57
2024-01-21T00:29:51.663Z,22.40
2024-01-21T00:32:23.974Z,24.10
2024-01-21T00:35:12.554Z,24.03
2024-01-21T00:37:44.976Z,19.60
2024-01-21T00:40:23.578Z,20.93
2024-01-21T00:42:55.824Z,17.97
2024-01-21T00:45:34.653Z,20.60
2024-01-21T00:48:07.604Z,19.73
2024-01-21T00:50:46.935Z,20.03
2024-01-21T00:53:19.256Z,19.30
2024-01-21T00:55:57.687Z,20.27
2024-01-21T00:58:29.803Z,21.90
2024-01-21T01:01:08.701Z,21.53
2024-01-21T01:03:41.179Z,19.37
2024-01-21T01:06:19.646Z,19.20
2024-01-21T01:08:52.213Z,29.27
2024-01-21T01:11:30.756Z,22.00
2024-01-21T01:14:02.997Z,20.90
2024-01-21T01:16:45.741Z,21.90
2024-01-21T01:19:18.496Z,18.97
2024-01-21T01:21:57.895Z,20.93
2024-01-21T01:24:30.206Z,23.40
2024-01-21T01:27:09.640Z,19.47
2024-01-21T01:29:41.739Z,18.93
2024-01-21T01:32:20.519Z,18.17
2024-01-21T01:34:52.770Z,17.60
2024-01-21T01:37:31.540Z,17.53
2024-01-21T01:40:04.428Z,16.53
2024-01-21T01:42:43.748Z,17.10
2024-01-21T01:45:16.023Z,16.33
2024-01-21T01:47:54.714Z,17.73
2024-01-21T01:50:27.882Z,15.37
2024-01-21T01:53:06.516Z,16.23
2024-01-21T01:55:39.097Z,15.67
2024-01-21T01:58:22.577Z,16.37
2024-01-21T02:00:55.136Z,15.43
2024-01-21T02:03:33.597Z,14.80
2024-01-21T02:06:05.898Z,14.97
2024-01-21T02:08:44.535Z,14.83
2024-01-21T02:11:16.600Z,14.10
2024-01-21T02:13:55.555Z,12.97
2024-01-21T02:16:27.727Z,13.53
2024-01-21T02:19:07.696Z,12.40
2024-01-21T02:21:40.062Z,12.70
2024-01-21T02:24:18.692Z,11.03
2024-01-21T02:26:50.878Z,10.70
2024-01-21T02:29:29.674Z,10.20
2024-01-21T02:32:01.919Z,10.23
2024-01-21T02:34:40.611Z,9.03
2024-01-21T02:37:12.752Z,9.73
2024-01-21T02:39:51.622Z,10.97
2024-01-21T02:42:24.178Z,12.67
2024-01-21T02:45:03.726Z,11.27
2024-01-21T02:47:35.920Z,11.77
2024-01-21T02:50:15.657Z,12.37
2024-01-21T02:52:47.802Z,13.50
2024-01-21T02:55:26.566Z,13.53
2024-01-21T02:57:58.754Z,13.03
2024-01-21T03:00:37.751Z,13.37
2024-01-21T03:03:10.235Z,15.10
2024-01-21T03:05:48.515Z,14.80
2024-01-21T03:08:20.647Z,14.60
2024-01-21T03:11:08.617Z,14.97
2024-01-21T03:13:40.861Z,14.30
2024-01-21T03:16:26.583Z,13.50
2024-01-21T03:18:58.901Z,12.17
2024-01-21T03:21:37.684Z,14.13
2024-01-21T03:24:09.871Z,12.63
2024-01-21T03:26:48.595Z,12.77
2024-01-21T03:29:21.221Z,13.40
2024-01-21T03:31:59.595Z,14.33
2024-01-21T03:34:31.885Z,17.23
2024-01-21T03:37:10.773Z,17.80
2024-01-21T03:39:43.013Z,16.33
2024-01-21T03:42:21.626Z,15.47
2024-01-21T03:44:53.892Z,16.83
2024-01-21T03:47:32.654Z,15.87
2024-01-21T03:50:06.094Z,17.23
2024-01-21T03:52:44.753Z,15.83
2024-01-21T03:55:18.270Z,14.40
2024-01-21T03:57:56.661Z,10.13
2024-01-21T04:00:29.354Z,11.23
2024-01-21T04:03:07.675Z,10.37
2024-01-21T04:05:39.781Z,9.43
2024-01-21T04:08:18.593Z,9.63
2024-01-21T04:10:50.817Z,8.93
2024-01-21T04:13:29.620Z,8.40
2024-01-21T04:16:02.138Z,7.73
2024-01-21T04:18:40.665Z,7.97
2024-01-21T04:21:12.877Z,8.43
2024-01-21T04:23:51.719Z,7.97
2024-01-21T04:26:23.905Z,7.97
2024-01-21T04:29:02.597Z,7.73
2024-01-21T04:31:34.654Z,7.23
2024-01-21T04:34:13.635Z,7.67
2024-01-21T04:36:45.855Z,7.17
2024-01-21T04:39:24.618Z,8.07
2024-01-21T04:41:56.892Z,7.50
2024-01-21T04:44:35.611Z,8.30
2024-01-21T04:47:07.823Z,6.67
2024-01-21T04:49:46.801Z,7.40
2024-01-21T04:52:18.993Z,8.23
2024-01-21T04:54:57.637Z,6.13
2024-01-21T04:57:29.901Z,7.70
2024-01-21T05:00:08.662Z,6.70
2024-01-21T05:02:40.876Z,6.97
2024-01-21T05:05:19.819Z,6.63
2024-01-21T05:07:51.932Z,6.70
2024-01-21T05:10:31.790Z,6.80
2024-01-21T05:13:04.065Z,6.93
2024-01-21T05:15:42.614Z,4.73
2024-01-21T05:18:14.832Z,6.13
2024-01-21T05:20:53.597Z,6.03
2024-01-21T05:23:25.738Z,4.70
2024-01-21T05:26:04.694Z,6.83
2024-01-21T05:28:36.757Z,8.00
2024-01-21T05:31:15.634Z,8.93
2024-01-21T05:33:50.957Z,6.20
2024-01-21T05:36:29.731Z,8.13
2024-01-21T05:39:01.847Z,7.17
2024-01-21T05:41:40.765Z,7.47
2024-01-21T05:44:12.950Z,8.27
2024-01-21T05:46:51.635Z,9.00
2024-01-21T05:49:24.550Z,7.67
2024-01-21T05:52:03.783Z,6.63
2024-01-21T05:54:35.953Z,7.30
2024-01-21T05:57:14.758Z,7.70
2024-01-21T05:59:47.019Z,7.03
2024-01-21T06:02:25.707Z,7.70
2024-01-21T06:04:57.915Z,7.33
2024-01-21T06:07:36.638Z,7.93
2024-01-21T06:10:10.470Z,7.07
2024-01-21T06:12:49.761Z,7.50
2024-01-21T06:15:22.007Z,7.40
2024-01-21T06:18:00.726Z,6.00
2024-01-21T06:20:32.822Z,5.83
2024-01-21T06:23:11.741Z,7.60
2024-01-21T06:25:43.920Z,5.97
2024-01-21T06:28:22.721Z,5.07
2024-01-21T06:30:55.121Z,6.60
2024-01-21T06:33:33.747Z,6.67
2024-01-21T06:36:06.425Z,6.13
2024-01-21T06:38:47.663Z,5.53
2024-01-21T06:41:19.965Z,5.07
2024-01-21T06:43:58.674Z,7.83
2024-01-21T06:46:30.785Z,7.60
2024-01-21T06:49:09.825Z,6.67
2024-01-21T06:51:42.073Z,6.57
2024-01-21T06:54:21.792Z,6.30
2024-01-21T06:56:53.864Z,7.43
2024-01-21T06:59:32.734Z,7.33
2024-01-21T07:02:04.974Z,7.73
2024-01-21T07:04:43.704Z,8.80
2024-01-21T07:07:15.970Z,7.73
2024-01-21T07:09:54.674Z,6.37
2024-01-21T07:12:27.028Z,8.43
2024-01-21T07:15:05.696Z,7.03
2024-01-21T07:17:37.853Z,6.20
2024-01-21T07:20:16.713Z,7.83
2024-01-21T07:22:48.869Z,6.37
2024-01-21T07:25:27.703Z,6.30
2024-01-21T07:28:00.000Z,9.07
2024-01-21T07:30:38.806Z,4.97
2024-01-21T07:33:11.147Z,8.30
2024-01-21T07:35:49.840Z,7.33
2024-01-21T07:38:21.912Z,7.07
2024-01-21T07:41:01.070Z,6.17
2024-01-21T07:43:33.198Z,6.90
2024-01-21T07:46:11.856Z,7.07
2024-01-21T07:48:44.215Z,6.73
2024-01-21T07:51:25.730Z,6.53
2024-01-21T07:53:57.937Z,7.00
2024-01-21T07:56:36.826Z,6.53
2024-01-21T07:59:08.943Z,5.43
2024-01-21T08:01:47.802Z,5.33
2024-01-21T08:04:20.073Z,5.40
2024-01-21T08:06:58.833Z,7.00
2024-01-21T08:09:31.080Z,6.10
2024-01-21T08:12:09.655Z,7.47
2024-01-21T08:14:41.831Z,6.93
2024-01-21T08:17:20.716Z,6.63
2024-01-21T08:19:53.084Z,5.50
2024-01-21T08:22:31.732Z,7.23
2024-01-21T08:25:04.199Z,7.17
2024-01-21T08:27:42.726Z,8.80
2024-01-21T08:30:15.145Z,8.13
2024-01-21T08:32:53.858Z,8.17
2024-01-21T08:35:26.135Z,7.47
2024-01-21T08:38:04.717Z,8.20
2024-01-21T08:40:36.978Z,6.83
2024-01-21T08:43:15.758Z,7.30
2024-01-21T08:45:47.917Z,9.00
2024-01-21T08:48:26.947Z,9.37
2024-01-21T08:50:59.295Z,9.47
2024-01-21T08:53:37.716Z,8.20
2024-01-21T08:56:10.704Z,6.93
2024-01-21T08:58:49.736Z,7.70
2024-01-21T09:01:22.644Z,9.07
2024-01-21T09:04:01.870Z,6.67
2024-01-21T09:06:35.065Z,6.67
2024-01-21T09:09:13.811Z,8.20
2024-01-21T09:11:46.093Z,6.73
2024-01-21T09:14:24.773Z,8.50
2024-01-21T09:16:57.040Z,6.23
2024-01-21T09:19:36.823Z,7.77
2024-01-21T09:22:10.263Z,7.73
2024-01-21T09:24:50.831Z,10.00
2024-01-21T09:27:23.766Z,7.07
2024-01-21T09:30:02.730Z,7.07
2024-01-21T09:32:34.935Z,7.90
2024-01-21T09:35:13.835Z,8.13
2024-01-21T09:37:46.019Z,7.07
2024-01-21T09:40:24.793Z,7.13
2024-01-21T09:42:57.537Z,7.57
2024-01-21T09:45:38.792Z,6.33
2024-01-21T09:48:12.393Z,6.87
2024-01-21T09:50:51.731Z,7.90
2024-01-21T09:53:23.977Z,6.03
2024-01-21T09:56:05.750Z,7.20
2024-01-21T09:58:57.105Z,7.30
2024-01-21T10:01:35.898Z,8.47
2024-01-21T10:04:09.280Z,8.33
2024-01-21T10:06:49.637Z,6.27
2024-01-21T10:09:22.726Z,7.43
2024-01-21T10:12:02.775Z,8.53
2024-01-21T10:14:35.252Z,7.73
2024-01-21T10:17:14.871Z,6.00
2024-01-21T10:19:48.196Z,6.20
2024-01-21T10:22:26.876Z,6.90
2024-01-21T10:25:00.202Z,7.20
2024-01-21T10:27:38.813Z,6.70
2024-01-21T10:30:13.904Z,6.07
2024-01-21T10:32:52.854Z,6.13
2024-01-21T10:35:25.718Z,6.20
2024-01-21T10:38:04.928Z,6.47
2024-01-21T10:40:37.147Z,6.30
2024-01-21T10:43:15.898Z,8.50
2024-01-21T10:45:48.672Z,8.90
2024-01-21T10:48:28.804Z,8.00
2024-01-21T10:51:02.024Z,8.30
2024-01-21T10:53:41.868Z,6.63
2024-01-21T10:56:15.145Z,8.47
2024-01-21T10:58:57.784Z,8.10
2024-01-21T11:01:31.438Z,7.03
2024-01-21T11:04:14.827Z,7.43
2024-01-21T11:06:47.888Z,7.93
2024-01-21T11:09:30.846Z,5.87
2024-01-21T11:12:03.462Z,6.00
2024-01-21T11:14:46.824Z,6.63
2024-01-21T11:17:19.432Z,7.93
2024-01-21T11:20:02.923Z,7.47
2024-01-21T11:22:38.752Z,8.10
2024-01-21T11:25:56.819Z,7.53
2024-01-21T11:28:31.068Z,7.60
2024-01-21T11:31:14.821Z,7.03
2024-01-21T11:34:06.982Z,6.93
2024-01-21T11:36:46.035Z,7.63
2024-01-21T11:39:20.227Z,6.37
2024-01-21T11:41:59.903Z,7.47
2024-01-21T11:44:33.343Z,7.00
2024-01-21T11:47:13.804Z,6.30
2024-01-21T11:49:46.095Z,6.53
2024-01-21T11:52:24.891Z,7.33
2024-01-21T11:54:59.637Z,6.23
2024-01-21T11:57:38.961Z,6.60
2024-01-21T12:00:11.753Z,6.40
2024-01-21T12:02:50.873Z,6.67
2024-01-21T12:05:23.080Z,5.40
2024-01-21T12:08:02.892Z,5.13
2024-01-21T12:10:35.514Z,4.53
2024-01-21T12:13:14.843Z,5.00
2024-01-21T12:15:51.049Z,5.00
2024-01-21T12:18:30.049Z,4.87
2024-01-21T12:21:02.470Z,6.03
2024-01-21T12:23:40.843Z,5.93
2024-01-21T12:26:20.399Z,5.27
2024-01-21T12:29:08.977Z,5.50
2024-01-21T12:31:41.898Z,3.93
2024-01-21T12:34:21.553Z,6.80
2024-01-21T12:36:54.207Z,6.03
2024-01-21T12:39:32.982Z,5.53
2024-01-21T12:42:05.170Z,5.33
2024-01-21T12:44:43.902Z,5.53
2024-01-21T12:47:16.660Z,6.03
2024-01-21T12:49:54.879Z,6.57
2024-01-21T12:52:27.023Z,5.60
2024-01-21T12:55:05.949Z,7.40
2024-01-21T12:57:38.059Z,6.40
2024-01-21T13:00:17.913Z,6.67
2024-01-21T13:02:50.064Z,6.57
2024-01-21T13:05:28.910Z,6.23
2024-01-21T13:08:01.115Z,7.23
2024-01-21T13:10:39.848Z,6.60
2024-01-21T13:13:11.962Z,7.30
2024-01-21T13:15:50.911Z,5.83
2024-01-21T13:18:23.672Z,4.37
2024-01-21T13:21:02.864Z,6.97
2024-01-21T13:23:35.053Z,6.20
2024-01-21T13:26:13.853Z,7.00
2024-01-21T13:28:46.151Z,4.83
2024-01-21T13:31:24.954Z,7.73
2024-01-21T13:33:57.267Z,5.90
2024-01-21T13:36:36.985Z,5.90
2024-01-21T13:39:09.235Z,5.70
2024-01-21T13:41:47.933Z,6.73
2024-01-21T13:44:20.055Z,4.03
2024-01-21T13:46:58.931Z,6.43
2024-01-21T13:49:31.158Z,4.43
2024-01-21T13:52:09.860Z,5.73
2024-01-21T13:54:42.188Z,5.10
2024-01-21T13:57:28.897Z,4.43
2024-01-21T14:00:01.077Z,5.87
2024-01-21T14:02:40.008Z,5.10
2024-01-21T14:05:12.280Z,5.97
2024-01-21T14:07:51.889Z,5.67
2024-01-21T14:10:24.846Z,4.50
2024-01-21T14:13:04.029Z,4.33
2024-01-21T14:15:36.266Z,6.83
2024-01-21T14:18:15.084Z,6.00
2024-01-21T14:20:47.703Z,5.90
2024-01-21T14:23:26.938Z,6.70
2024-01-21T14:26:00.308Z,5.73
2024-01-21T14:28:40.056Z,7.70
2024-01-21T14:31:12.333Z,5.97
2024-01-21T14:33:51.058Z,6.73
2024-01-21T14:36:23.398Z,5.73
2024-01-21T14:39:01.890Z,5.33
2024-01-21T14:41:34.070Z,5.67
2024-01-21T14:44:12.954Z,7.00
2024-01-21T14:46:47.969Z,5.40
2024-01-21T14:49:27.134Z,6.37
2024-01-21T14:52:00.509Z,4.97
2024-01-21T14:54:40.094Z,5.27
2024-01-21T14:57:12.372Z,5.73
2024-01-21T14:59:51.955Z,6.60
2024-01-21T15:02:24.062Z,6.10
2024-01-21T15:05:02.991Z,6.60
2024-01-21T15:07:36.348Z,7.27
2024-01-21T15:10:15.004Z,6.63
2024-01-21T15:12:47.402Z,7.63
2024-01-21T15:15:43.955Z,5.77
2024-01-21T15:18:23.746Z,8.40
2024-01-21T15:21:08.990Z,6.63
2024-01-21T15:23:41.154Z,7.47
2024-01-21T15:26:19.884Z,6.00
2024-01-21T15:28:52.295Z,6.53
2024-01-21T15:31:31.011Z,5.73
2024-01-21T15:34:03.244Z,8.47
2024-01-21T15:36:42.011Z,7.23
2024-01-21T15:39:14.460Z,6.50
2024-01-21T15:41:53.986Z,7.27
2024-01-21T15:44:27.605Z,5.03
2024-01-21T15:47:07.024Z,6.60
2024-01-21T15:49:39.363Z,6.90
2024-01-21T15:52:17.980Z,5.70
2024-01-21T15:54:50.160Z,6.10
2024-01-21T15:57:28.978Z,6.37
2024-01-21T16:00:01.271Z,6.10
2024-01-21T16:02:40.016Z,7.20
2024-01-21T16:05:12.233Z,7.07
2024-01-21T16:07:50.961Z,6.17
2024-01-21T16:10:23.222Z,7.33
2024-01-21T16:13:01.992Z,8.07
2024-01-21T16:15:43.165Z,6.47
2024-01-21T16:18:27.068Z,8.13
2024-01-21T16:21:00.324Z,6.77
2024-01-21T16:23:38.983Z,6.23
2024-01-21T16:26:11.192Z,9.10
2024-01-21T16:28:50.084Z,7.53
2024-01-21T16:31:22.432Z,8.87
2024-01-21T16:34:01.107Z,8.27
2024-01-21T16:36:34.045Z,8.80
2024-01-21T16:39:13.803Z,5.93
2024-01-21T16:41:50.106Z,9.00
2024-01-21T16:44:29.016Z,6.80
2024-01-21T16:47:02.297Z,8.03
2024-01-21T16:49:41.143Z,7.37
2024-01-21T16:52:21.271Z,8.03
2024-01-21T16:55:00.725Z,7.33
2024-01-21T16:57:34.523Z,6.70
2024-01-21T17:00:27.246Z,6.80
2024-01-21T17:03:01.323Z,9.13
2024-01-21T17:05:49.622Z,7.30
2024-01-21T17:08:25.064Z,9.77
2024-01-21T17:11:14.450Z,9.63
2024-01-21T17:13:51.417Z,9.73
2024-01-21T17:16:41.011Z,8.03
2024-01-21T17:19:14.472Z,7.30
2024-01-21T17:21:54.978Z,10.20
2024-01-21T17:24:28.165Z,6.63
2024-01-21T17:27:09.203Z,9.40
2024-01-21T17:29:41.983Z,9.03
2024-01-21T17:32:21.193Z,9.20
2024-01-21T17:34:53.439Z,7.13
2024-01-21T17:37:32.122Z,7.67
2024-01-21T17:40:04.752Z,7.90
2024-01-21T17:42:45.241Z,10.33
2024-01-21T17:45:17.671Z,9.87
2024-01-21T17:47:57.239Z,9.83
2024-01-21T17:50:29.622Z,10.37
2024-01-21T17:53:10.001Z,7.57
2024-01-21T17:55:42.241Z,9.30
2024-01-21T17:58:21.091Z,9.70
2024-01-21T18:00:53.433Z,8.63
2024-01-21T18:03:32.035Z,9.83
2024-01-21T18:06:04.461Z,7.17
2024-01-21T18:08:43.151Z,10.00
2024-01-21T18:11:15.466Z,10.27
2024-01-21T18:13:54.116Z,11.73
2024-01-21T18:16:28.004Z,9.20
2024-01-21T18:19:07.151Z,10.77
2024-01-21T18:21:41.484Z,8.93
2024-01-21T18:24:21.562Z,10.87
2024-01-21T18:26:53.989Z,7.13
2024-01-21T18:29:36.048Z,7.50
2024-01-21T18:32:11.528Z,7.70
2024-01-21T18:34:50.179Z,7.40
2024-01-21T18:37:22.369Z,10.10
2024-01-21T18:40:01.181Z,11.97
2024-01-21T18:42:33.525Z,10.17
2024-01-21T18:45:13.325Z,10.57
2024-01-21T18:47:45.822Z,10.00
2024-01-21T18:50:25.170Z,10.60
2024-01-21T18:52:57.360Z,10.83
2024-01-21T18:55:36.090Z,10.63
2024-01-21T18:58:12.230Z,11.10
2024-01-21T19:00:57.184Z,10.80
2024-01-21T19:03:29.432Z,9.37
2024-01-21T19:06:08.239Z,11.93
2024-01-21T19:08:40.513Z,9.57
2024-01-21T19:11:19.168Z,8.87
2024-01-21T19:13:51.385Z,10.03
2024-01-21T19:16:30.187Z,10.73
2024-01-21T19:19:02.484Z,11.30
2024-01-21T19:21:42.048Z,12.70
2024-01-21T19:24:14.248Z,11.00
2024-01-21T19:26:53.218Z,10.77
2024-01-21T19:29:25.999Z,11.43
2024-01-21T19:32:05.201Z,10.90
2024-01-21T19:34:37.612Z,9.50
2024-01-21T19:37:16.249Z,12.63
2024-01-21T19:39:48.489Z,13.77
2024-01-21T19:42:27.127Z,12.10
2024-01-21T19:44:59.564Z,12.27
2024-01-21T19:47:38.244Z,11.43
2024-01-21T19:50:10.806Z,10.03
2024-01-21T19:52:50.226Z,10.23
2024-01-21T19:55:22.766Z,13.90
2024-01-21T19:58:01.141Z,9.23
2024-01-21T20:00:33.731Z,11.97
2024-01-21T20:03:13.273Z,11.37
2024-01-21T20:05:45.720Z,13.93
2024-01-21T20:08:25.157Z,13.93
2024-01-21T20:10:57.360Z,12.17
2024-01-21T20:13:36.122Z,11.70
2024-01-21T20:16:08.446Z,12.63
2024-01-21T20:18:47.835Z,11.93
2024-01-21T20:21:20.323Z,11.70
2024-01-21T20:23:59.324Z,10.00
2024-01-21T20:26:31.533Z,10.23
2024-01-21T20:29:12.306Z,11.10
2024-01-21T20:31:44.842Z,10.07
2024-01-21T20:34:24.365Z,8.67
2024-01-21T20:36:56.841Z,9.53
2024-01-21T20:39:38.412Z,11.53
2024-01-21T20:42:11.041Z,11.50
2024-01-21T20:44:50.907Z,10.70
2024-01-21T20:47:23.529Z,10.87
2024-01-21T20:50:02.161Z,13.47
2024-01-21T20:52:34.320Z,13.33
2024-01-21T20:55:13.161Z,12.50
2024-01-21T20:57:45.446Z,11.13
2024-01-21T21:00:25.142Z,12.50
2024-01-21T21:02:57.341Z,13.43
2024-01-21T21:05:36.875Z,12.93
2024-01-21T21:08:10.049Z,11.63
2024-01-21T21:10:51.263Z,11.77
2024-01-21T21:13:24.692Z,13.20
2024-01-21T21:16:03.098Z,9.33
2024-01-21T21:18:35.523Z,11.80
2024-01-21T21:21:14.213Z,11.30
2024-01-21T21:23:46.605Z,14.37
2024-01-21T21:26:25.099Z,13.47
2024-01-21T21:28:57.207Z,9.20
2024-01-21T21:31:36.088Z,12.63
2024-01-21T21:34:08.463Z,11.70
2024-01-21T21:36:50.181Z,15.40
2024-01-21T21:39:22.883Z,10.00
2024-01-21T21:42:02.117Z,14.93
2024-01-21T21:44:34.400Z,12.30
2024-01-21T21:47:13.104Z,15.47
2024-01-21T21:49:45.828Z,10.57
2024-01-21T21:52:25.201Z,10.37
2024-01-21T21:54:57.586Z,9.97
2024-01-21T21:57:36.217Z,12.13
2024-01-21T22:00:10.433Z,13.13
2024-01-21T22:02:49.244Z,12.87
2024-01-21T22:05:21.478Z,12.60
2024-01-21T22:08:00.388Z,10.90
2024-01-21T22:10:33.773Z,11.33
2024-01-21T22:13:12.119Z,12.37
2024-01-21T22:15:44.408Z,13.43
2024-01-21T22:18:23.370Z,10.37
2024-01-21T22:20:55.785Z,12.40
2024-01-21T22:23:35.212Z,11.33
2024-01-21T22:26:07.604Z,11.50
2024-01-21T22:28:46.182Z,12.73
2024-01-21T22:31:18.656Z,14.37
2024-01-21T22:33:57.129Z,10.17
2024-01-21T22:36:29.265Z,13.23
2024-01-21T22:39:08.240Z,12.07
2024-01-21T22:41:40.543Z,11.33
2024-01-21T22:44:19.140Z,11.00
2024-01-21T22:46:54.377Z,11.17
2024-01-21T22:49:33.225Z,10.73
2024-01-21T22:52:05.951Z,11.77
2024-01-21T22:54:44.235Z,8.87
2024-01-21T22:57:17.127Z,10.97
2024-01-21T22:59:56.444Z,9.20
2024-01-21T23:02:28.875Z,9.67
2024-01-21T23:05:07.297Z,11.73
2024-01-21T23:07:39.518Z,11.70
2024-01-21T23:10:19.264Z,8.77
2024-01-21T23:12:51.293Z,11.03
2024-01-21T23:15:30.272Z,8.70
2024-01-21T23:18:02.711Z,9.10
2024-01-21T23:20:41.235Z,9.60
2024-01-21T23:23:13.467Z,10.63
2024-01-21T23:25:52.262Z,12.60
2024-01-21T23:28:24.546Z,9.30
2024-01-21T23:31:03.184Z,8.93
2024-01-21T23:33:35.850Z,7.47
2024-01-21T23:36:15.380Z,9.43
2024-01-21T23:38:48.413Z,9.93
2024-01-21T23:41:27.223Z,9.67
2024-01-21T23:43:59.554Z,10.87
2024-01-21T23:46:39.452Z,8.10
2024-01-21T23:49:12.001Z,8.70
2024-01-21T23:51:56.467Z,9.93
2024-01-21T23:54:29.549Z,8.57
2024-01-21T23:57:10.801Z,8.43
2024-01-21T23:59:44.923Z,11.17
